Del Rio, Tennessee
Current Conditions -  °F | °C
As of 11:15 PM on Thursday 27 Nov 2014 (Local Time) from KMOR Reporting Station
Broken Clouds Broken Clouds  
Wind Chill: -4°   Ceiling: 4400
Heat Index: -1°   Visibility: 10mi
Dew Point: -6°   Wind: 5mph
Humidity: 69%   Direction: 300°WNW
Pressure: 30.37"   Gusts: NA
Location:  35.92°N, 83.03°W
Report Text: KMOR 280415Z AUTO 30004KT 10SM BKN044 M01/M06 A3037 RMK
Loading
Personal Weather Stations






























Interactive Weather Map New forecast layout! Learn more

10-Day Weather Forecast

Advertisements
Track Severe Weather on mobile